createdAt,value
2023-03-18T00:04:24.782Z,14.52
2023-03-18T00:09:27.555Z,14.51
2023-03-18T00:14:30.759Z,14.49
2023-03-18T00:19:33.798Z,14.49
2023-03-18T00:24:37.162Z,14.45
2023-03-18T00:29:42.945Z,14.44
2023-03-18T00:34:45.454Z,14.30
2023-03-18T00:39:47.986Z,14.10
2023-03-18T00:44:50.666Z,14.02
2023-03-18T00:49:55.094Z,14.05
2023-03-18T00:54:57.559Z,14.12
2023-03-18T01:00:00.563Z,14.08
2023-03-18T01:05:04.058Z,14.23
2023-03-18T01:10:07.880Z,14.18
2023-03-18T01:15:14.243Z,14.09
2023-03-18T01:20:19.603Z,13.98
2023-03-18T01:25:27.354Z,13.85
2023-03-18T01:30:31.429Z,13.77
2023-03-18T01:35:35.888Z,13.75
2023-03-18T01:40:40.886Z,13.89
2023-03-18T01:45:50.486Z,13.83
2023-03-18T01:50:57.010Z,13.76
2023-03-18T01:56:01.516Z,13.70
2023-03-18T02:01:19.170Z,13.68
2023-03-18T02:06:24.946Z,13.64
2023-03-18T02:11:39.241Z,13.65
2023-03-18T02:16:48.101Z,13.62
2023-03-18T02:22:15.385Z,13.61
2023-03-18T02:27:29.208Z,13.43
2023-03-18T02:32:34.312Z,13.42
2023-03-18T02:37:38.332Z,13.28
2023-03-18T02:42:40.946Z,13.15
2023-03-18T02:47:47.383Z,13.10
2023-03-18T02:52:49.861Z,13.06
2023-03-18T02:57:52.838Z,13.04
2023-03-18T03:02:55.866Z,13.00
2023-03-18T03:07:58.782Z,12.95
2023-03-18T03:13:03.374Z,12.95
2023-03-18T03:18:07.200Z,12.92
2023-03-18T03:23:14.318Z,12.88
2023-03-18T03:28:17.215Z,12.87
2023-03-18T03:33:20.477Z,12.87
2023-03-18T03:38:23.146Z,12.75
2023-03-18T03:43:25.782Z,12.69
2023-03-18T03:48:28.340Z,12.60
2023-03-18T03:53:31.130Z,12.59
2023-03-18T03:58:34.298Z,12.62
2023-03-18T04:03:37.133Z,12.85
2023-03-18T04:08:42.617Z,13.11
2023-03-18T04:13:45.803Z,13.14
2023-03-18T04:18:48.333Z,13.04
2023-03-18T04:23:51.105Z,13.10
2023-03-18T04:28:53.612Z,13.17
2023-03-18T04:33:57.516Z,12.74
2023-03-18T04:39:00.536Z,12.44
2023-03-18T04:44:04.538Z,12.16
2023-03-18T04:49:15.979Z,12.09
2023-03-18T04:54:19.251Z,12.17
2023-03-18T04:59:22.568Z,12.47
2023-03-18T05:04:27.461Z,12.57
2023-03-18T05:09:30.412Z,12.51
2023-03-18T05:14:34.432Z,12.64
2023-03-18T05:19:41.124Z,12.69
2023-03-18T05:24:49.728Z,12.48
2023-03-18T05:29:53.036Z,12.49
2023-03-18T05:35:05.892Z,12.40
2023-03-18T05:40:18.044Z,12.38
2023-03-18T05:45:35.804Z,12.22
2023-03-18T05:50:44.309Z,12.19
2023-03-18T05:55:51.753Z,12.17
2023-03-18T06:00:54.857Z,12.14
2023-03-18T06:05:57.530Z,12.22
2023-03-18T06:11:01.275Z,12.37
2023-03-18T06:16:04.270Z,12.61
2023-03-18T06:21:13.004Z,12.61
2023-03-18T06:26:15.420Z,12.64
2023-03-18T06:31:23.288Z,12.68
2023-03-18T06:36:26.717Z,12.82
2023-03-18T06:41:30.310Z,12.77
2023-03-18T06:46:58.869Z,12.67
2023-03-18T06:52:03.736Z,12.48
2023-03-18T06:57:07.653Z,12.49
2023-03-18T07:02:12.466Z,12.84
2023-03-18T07:07:14.966Z,13.70
2023-03-18T07:12:17.849Z,14.70
2023-03-18T07:17:20.732Z,15.25
2023-03-18T07:22:23.361Z,15.41
2023-03-18T07:27:25.893Z,16.29
2023-03-18T07:32:30.751Z,16.99
2023-03-18T07:37:36.679Z,17.70
2023-03-18T07:42:40.221Z,18.24
2023-03-18T07:47:47.228Z,18.81
2023-03-18T07:52:49.823Z,19.60
2023-03-18T07:57:52.423Z,19.98
2023-03-18T08:02:55.394Z,19.40
2023-03-18T08:07:58.483Z,19.11
2023-03-18T08:13:06.690Z,19.06
2023-03-18T08:18:09.801Z,20.34
2023-03-18T08:23:12.858Z,21.84
2023-03-18T08:28:16.126Z,20.68
2023-03-18T08:33:20.147Z,19.19
2023-03-18T08:38:26.025Z,21.31
2023-03-18T08:43:28.507Z,22.62
2023-03-18T08:48:31.311Z,24.01
2023-03-18T08:53:34.163Z,23.71
2023-03-18T08:58:36.638Z,24.29
2023-03-18T09:03:39.526Z,26.18
2023-03-18T09:08:42.590Z,26.72
2023-03-18T09:13:45.031Z,27.18
2023-03-18T09:18:48.882Z,28.17
2023-03-18T09:23:52.799Z,25.73
2023-03-18T09:28:55.420Z,24.66
2023-03-18T09:33:58.743Z,23.75
2023-03-18T09:39:01.440Z,23.06
2023-03-18T09:44:10.721Z,23.06
2023-03-18T09:49:15.985Z,22.95
2023-03-18T09:54:44.792Z,22.05
2023-03-18T10:00:02.933Z,22.21
2023-03-18T10:05:23.598Z,22.92
2023-03-18T10:10:38.727Z,22.44
2023-03-18T10:15:47.873Z,22.08
2023-03-18T10:21:11.312Z,22.80
2023-03-18T10:26:37.204Z,24.28
2023-03-18T10:31:48.614Z,25.40
2023-03-18T10:37:15.385Z,26.53
2023-03-18T10:42:23.195Z,26.04
2023-03-18T10:47:34.147Z,26.89
2023-03-18T10:52:51.308Z,28.95
2023-03-18T10:57:53.860Z,29.41
2023-03-18T11:02:57.171Z,27.78
2023-03-18T11:08:01.347Z,27.72
2023-03-18T11:13:04.399Z,29.14
2023-03-18T11:18:14.315Z,29.37
2023-03-18T11:23:48.534Z,30.60
2023-03-18T11:28:57.213Z,30.51
2023-03-18T11:34:00.797Z,31.01
2023-03-18T11:39:06.285Z,32.74
2023-03-18T11:44:17.894Z,31.23
2023-03-18T11:49:27.077Z,33.01
2023-03-18T11:55:02.228Z,31.26
2023-03-18T12:00:29.645Z,28.87
2023-03-18T12:06:02.625Z,30.03
2023-03-18T12:11:38.410Z,29.66
2023-03-18T12:16:59.688Z,30.42
2023-03-18T12:22:40.240Z,28.60
2023-03-18T12:27:58.812Z,28.46
2023-03-18T12:33:34.553Z,28.86
2023-03-18T12:39:08.315Z,25.74
2023-03-18T12:44:35.461Z,26.63
2023-03-18T12:49:43.810Z,26.64
2023-03-18T12:55:12.048Z,26.48
2023-03-18T13:00:27.122Z,27.78
2023-03-18T13:05:52.609Z,26.87
2023-03-18T13:11:42.136Z,26.77
2023-03-18T13:16:44.708Z,28.44
2023-03-18T13:21:54.048Z,28.33
2023-03-18T13:27:16.141Z,29.24
2023-03-18T13:32:30.528Z,30.18
2023-03-18T13:37:54.475Z,27.66
2023-03-18T13:43:02.560Z,26.01
2023-03-18T13:48:16.471Z,24.82
2023-03-18T13:53:34.548Z,24.47
2023-03-18T13:58:47.715Z,25.37
2023-03-18T14:03:50.051Z,26.38
2023-03-18T14:08:53.688Z,25.93
2023-03-18T14:14:01.168Z,25.99
2023-03-18T14:19:12.527Z,25.93
2023-03-18T14:24:23.645Z,25.44
2023-03-18T14:29:31.223Z,24.01
2023-03-18T14:34:34.875Z,23.51
2023-03-18T14:39:37.461Z,23.30
2023-03-18T14:45:00.676Z,22.35
2023-03-18T14:50:25.554Z,22.66
2023-03-18T14:55:34.238Z,22.73
2023-03-18T15:00:37.711Z,22.09
2023-03-18T15:05:42.463Z,21.72
2023-03-18T15:10:50.418Z,21.88
2023-03-18T15:15:59.374Z,21.26
2023-03-18T15:21:17.866Z,21.30
2023-03-18T15:26:29.009Z,21.60
2023-03-18T15:31:39.556Z,21.46
2023-03-18T15:36:52.976Z,21.43
2023-03-18T15:41:57.877Z,21.54
2023-03-18T15:47:29.916Z,21.40
2023-03-18T15:52:36.570Z,21.11
2023-03-18T15:57:40.319Z,21.08
2023-03-18T16:02:43.417Z,20.97
2023-03-18T16:07:46.831Z,20.77
2023-03-18T16:12:53.713Z,20.68
2023-03-18T16:17:57.969Z,20.53
2023-03-18T16:23:00.621Z,20.42
2023-03-18T16:28:03.442Z,20.24
2023-03-18T16:33:08.622Z,20.16
2023-03-18T16:38:16.544Z,19.99
2023-03-18T16:43:23.874Z,19.88
2023-03-18T16:48:27.957Z,19.71
2023-03-18T16:53:31.665Z,19.61
2023-03-18T16:58:36.680Z,19.58
2023-03-18T17:03:39.082Z,19.40
2023-03-18T17:08:42.144Z,19.22
2023-03-18T17:13:44.840Z,19.11
2023-03-18T17:18:47.308Z,19.01
2023-03-18T17:23:49.793Z,18.82
2023-03-18T17:28:54.020Z,18.71
2023-03-18T17:33:56.509Z,18.66
2023-03-18T17:39:00.427Z,18.33
2023-03-18T17:44:03.281Z,18.17
2023-03-18T17:49:11.960Z,18.03
2023-03-18T17:54:21.909Z,17.93
2023-03-18T17:59:27.660Z,17.87
2023-03-18T18:04:30.289Z,17.72
2023-03-18T18:09:33.048Z,17.70
2023-03-18T18:14:36.064Z,17.75
2023-03-18T18:19:38.815Z,17.75
2023-03-18T18:24:42.078Z,17.67
2023-03-18T18:29:46.048Z,17.55
2023-03-18T18:34:49.206Z,17.56
2023-03-18T18:39:51.677Z,17.55
2023-03-18T18:44:54.098Z,17.35
2023-03-18T18:49:56.508Z,17.23
2023-03-18T18:55:02.270Z,17.00
2023-03-18T19:00:10.081Z,16.96
2023-03-18T19:05:14.182Z,16.89
2023-03-18T19:10:18.442Z,16.71
2023-03-18T19:15:21.689Z,16.69
2023-03-18T19:20:29.914Z,16.63
2023-03-18T19:25:32.861Z,16.46
2023-03-18T19:30:38.483Z,16.33
2023-03-18T19:35:41.540Z,16.26
2023-03-18T19:40:44.130Z,16.17
2023-03-18T19:45:49.785Z,16.19
2023-03-18T19:50:53.007Z,16.06
2023-03-18T19:55:56.066Z,16.01
2023-03-18T20:01:00.637Z,16.03
2023-03-18T20:06:03.545Z,16.03
2023-03-18T20:11:10.848Z,15.98
2023-03-18T20:16:15.456Z,15.89
2023-03-18T20:21:30.038Z,15.78
2023-03-18T20:26:32.696Z,15.77
2023-03-18T20:31:35.280Z,15.87
2023-03-18T20:36:38.502Z,16.02
2023-03-18T20:41:41.068Z,15.86
2023-03-18T20:46:43.465Z,15.65
2023-03-18T20:51:46.333Z,15.68
2023-03-18T20:56:49.112Z,15.77
2023-03-18T21:01:51.938Z,15.87
2023-03-18T21:06:54.421Z,15.50
2023-03-18T21:11:56.983Z,15.42
2023-03-18T21:16:59.414Z,15.40
2023-03-18T21:22:02.283Z,15.26
2023-03-18T21:27:05.877Z,15.26
2023-03-18T21:32:19.457Z,15.50
2023-03-18T21:37:24.524Z,15.39
2023-03-18T21:42:30.771Z,15.33
2023-03-18T21:47:33.387Z,15.25
2023-03-18T21:52:37.585Z,15.19
2023-03-18T21:57:40.372Z,15.07
2023-03-18T22:02:43.283Z,15.30
2023-03-18T22:07:46.180Z,15.20
2023-03-18T22:12:48.979Z,15.17
2023-03-18T22:17:52.173Z,15.06
2023-03-18T22:22:54.653Z,14.93
2023-03-18T22:27:58.472Z,14.61
2023-03-18T22:33:04.081Z,14.63
2023-03-18T22:38:06.570Z,14.71
2023-03-18T22:43:34.986Z,14.87
2023-03-18T22:48:38.010Z,14.75
2023-03-18T22:53:42.486Z,14.58
2023-03-18T22:58:45.498Z,14.57
2023-03-18T23:03:49.045Z,14.72
2023-03-18T23:08:51.506Z,14.78
2023-03-18T23:13:54.600Z,14.68
2023-03-18T23:18:57.267Z,14.38
2023-03-18T23:23:59.917Z,14.39
2023-03-18T23:29:02.930Z,14.30
2023-03-18T23:34:05.802Z,14.46
2023-03-18T23:39:08.217Z,14.52
2023-03-18T23:44:10.730Z,14.48
2023-03-18T23:49:13.759Z,14.35
2023-03-18T23:54:16.204Z,14.46
2023-03-18T23:59:18.923Z,14.56
